Content
SEND FEEDBACK

Daily
Averages
Monthly
Summary
United States of America

ARCADIA WILDERNESS PARK, CALIFORNIA


Home > North America > United States > California
Elevation: 2040 feet     Latitude: 34 12N     Longitude: 118 01W

WEATHER
 
SELECT A DAY
Number of Records: 132,130;   Date Range: 1/1/95 - 10/29/14
 
SHARE

PRINT THIS DATA

[ ← Previous Day ]
WEATHER ALMANAC - FEBRUARY 13, 2013
[ Next Day → ]
[ °C ]   °F
Weather ElementAverageHighLow
Temperature43.8 °F55.4 °F (11:00 am) (7:45 am)
Dewpoint15.5 °F26.6 °F (1:00 pm) (7:00 pm)
Humidity31.5 %42 % (8:00 pm)23 % (6:45 am)
Wind Speed3.3 mph8.1 mph (10:00 pm)
Wind Gust10.4 mph (10:00 pm)
Weather ElementAverage
Wind DirectionS (176.5 °)

Weather ElementTotal
Precipitation---
Heating Degree Days37.3 (Base 65)
Averaged from 42 records on February 13, 2013
WEATHER CONDITIONS BREAKOUT
WIND DIRECTION BREAKOUT
WEATHER BY HOUR - FEBRUARY 13, 2013
[ °C ]   °F
Local TimeTemperatureDewpointHumidityBarometerVisibilityWind DirectionWind SpeedGust SpeedPrecipitationEventsConditions
12:30 AM35.6 °F10.4 °F35 %NNE (20°)2.3 mph4.6 mph
1:00 AM35.6 °F10.4 °F35 %NW (315°)3.5 mph5.8 mph
1:45 AM35.6 °F8.6 °F33 %West (280°)1.2 mph1.2 mph
2:15 AM37.4 °F8.6 °F30 %SW (235°)2.3 mph4.6 mph
3:00 AM35.6 °F10.4 °F35 %NNE (20°)3.5 mph5.8 mph
3:30 AM35.6 °F8.6 °F33 %SW (215°)1.2 mph2.3 mph
4:00 AM37.4 °F6.8 °F28 %NE (55°)4.6 mph6.9 mph
4:30 AM39.2 °F6.8 °F26 %NE (40°)3.5 mph8.1 mph
5:15 AM37.4 °F5.0 °F26 %SSE (155°)3.5 mph3.5 mph
6:00 AM37.4 °F5.0 °F26 %SSW (200°)2.3 mph2.3 mph
6:45 AM41.0 °F5.0 °F23 %NE (55°)2.3 mph3.5 mph
7:15 AM39.2 °F6.8 °F26 %East (85°)4.6 mph5.8 mph
7:45 AM0.0 °F0.0 °FCalm (235°)0.0 mph
8:15 AM48.2 °F14.0 °F25 %NE (35°)2.3 mph4.6 mph
9:00 AM50.0 °F14.0 °F24 %NE (50°)2.3 mph3.5 mph
9:30 AM50.0 °F15.8 °F26 %North (360°)2.3 mph3.5 mph
10:00 AM53.6 °F17.6 °F24 %West (270°)1.2 mph2.3 mph
10:30 AM53.6 °F19.4 °F26 %WSW (245°)2.3 mph4.6 mph
11:00 AM55.4 °F21.2 °F26 %WSW (250°)3.5 mph4.6 mph
11:30 AM53.6 °F21.2 °F28 %WSW (240°)3.5 mph5.8 mph
12:00 PM53.6 °F21.2 °F28 %SW (225°)4.6 mph6.9 mph
1:00 PM53.6 °F26.6 °F35 %WSW (240°)4.6 mph8.1 mph
1:30 PM55.4 °F26.6 °F33 %SW (235°)4.6 mph6.9 mph
2:00 PM55.4 °F24.8 °F31 %SW (235°)5.8 mph8.1 mph
2:45 PM53.6 °F24.8 °F33 %WSW (245°)3.5 mph5.8 mph
3:30 PM51.8 °F23.0 °F33 %SW (235°)5.8 mph5.8 mph
4:00 PM53.6 °F23.0 °F30 %North (355°)1.2 mph2.3 mph
4:30 PM50.0 °F21.2 °F32 %NNW (335°)3.5 mph5.8 mph
5:00 PM50.0 °F23.0 °F35 %NW (325°)3.5 mph4.6 mph
5:30 PM46.4 °F19.4 °F34 %West (280°)1.2 mph3.5 mph
6:00 PM42.8 °F17.6 °F36 %SE (125°)1.2 mph2.3 mph
6:30 PM41.0 °F15.8 °F36 %SSE (155°)1.2 mph3.5 mph
7:00 PM41.0 °F14.0 °F33 %SSW (205°)1.2 mph2.3 mph
7:30 PM42.8 °F17.6 °F36 %NNW (330°)4.6 mph5.8 mph
8:00 PM41.0 °F19.4 °F42 %North
8:30 PM41.0 °F15.8 °F36 %NE (35°)4.6 mph4.6 mph
9:00 PM42.8 °F17.6 °F36 %NE (40°)4.6 mph4.6 mph
9:30 PM42.8 °F17.6 °F36 %NE (45°)5.8 mph8.1 mph
10:00 PM41.0 °F17.6 °F39 %NE (40°)8.1 mph10.4 mph
10:30 PM42.8 °F17.6 °F36 %NE (40°)4.6 mph5.8 mph
11:00 PM42.8 °F15.8 °F34 %NNE (20°)4.6 mph5.8 mph
11:30 PM41.0 °F14.0 °F33 %NW (310°)2.3 mph3.5 mph
Hourly data recorded from KMWS, located miles away from Arcadia Wilderness Park, California







STORIES FROM OUR PARTNERS